Time;durP1;ratioP1;P1;durP2;ratioP2;P2;SDS_P1;SDS_P2;PMS_P1;PMS_P2;Temp;Humidity;BMP_temperature;BMP_pressure;BME280_temperature;BME280_humidity;BME280_pressure;Samples;Min_cycle;Max_cycle;Signal;HPM_P1;HPM_P2
2022/01/02 00:01:59;;;;;;;0.30;0.30;;;;;;;6.96;100.00;99947.69;5045290;28;20020;-74
2022/01/02 00:04:27;;;;;;;0.40;0.40;;;;;;;7.00;100.00;99964.88;5045291;28;20059;-72
2022/01/02 00:06:53;;;;;;;0.30;0.30;;;;;;;6.98;100.00;99944.22;5045223;28;20060;-74
2022/01/02 00:09:23;;;;;;;0.40;0.40;;;;;;;6.88;100.00;99939.97;5045016;28;20029;-73
2022/01/02 00:11:52;;;;;;;0.40;0.40;;;;;;;6.81;100.00;99952.00;5044859;28;20464;-74
2022/01/02 00:14:22;;;;;;;0.40;0.40;;;;;;;6.78;100.00;99932.22;5063436;28;20065;-73
2022/01/02 00:16:50;;;;;;;0.40;0.40;;;;;;;6.74;100.00;99951.13;5065035;28;20080;-74
2022/01/02 00:19:21;;;;;;;0.30;0.30;;;;;;;6.72;100.00;99944.25;5064632;28;20021;-74
2022/01/02 00:21:48;;;;;;;0.40;0.40;;;;;;;6.68;100.00;99944.25;5063542;28;20444;-74
2022/01/02 00:24:18;;;;;;;0.40;0.40;;;;;;;6.66;100.00;99942.56;5063396;28;20088;-73
2022/01/02 00:26:48;;;;;;;0.40;0.40;;;;;;;6.61;100.00;99928.78;5064632;28;20025;-74
2022/01/02 00:29:13;;;;;;;0.40;0.40;;;;;;;6.61;100.00;99933.94;5064378;28;20089;-74
2022/01/02 00:31:40;;;;;;;0.40;0.40;;;;;;;6.59;100.00;99923.63;5064468;28;20025;-74
2022/01/02 00:34:07;;;;;;;0.40;0.40;;;;;;;6.59;100.00;99920.19;5063903;28;20040;-74
2022/01/02 00:36:33;;;;;;;0.40;0.40;;;;;;;6.56;100.00;99908.16;5064423;28;20044;-74
2022/01/02 00:38:58;;;;;;;0.40;0.40;;;;;;;6.56;100.00;99909.03;5064652;28;20024;-72
2022/01/02 00:41:33;;;;;;;0.40;0.40;;;;;;;6.53;100.00;99910.72;5064346;28;20060;-74
2022/01/02 00:44:02;;;;;;;0.40;0.40;;;;;;;6.49;100.00;99889.22;5064308;28;20025;-75
2022/01/02 00:46:32;;;;;;;0.30;0.30;;;;;;;6.50;100.00;99890.09;5062911;28;20434;-74
2022/01/02 00:49:03;;;;;;;0.45;0.45;;;;;;;6.44;100.00;99884.06;5064532;28;20029;-75
2022/01/02 00:51:46;;;;;;;0.30;0.30;;;;;;;6.43;100.00;99871.19;5064177;28;20473;-75
2022/01/02 00:54:14;;;;;;;0.40;0.40;;;;;;;6.46;100.00;99873.75;5064158;28;20027;-74
2022/01/02 00:56:43;;;;;;;0.40;0.40;;;;;;;6.40;100.00;99866.03;5064100;28;20025;-76
2022/01/02 00:59:25;;;;;;;0.30;0.30;;;;;;;6.41;100.00;99870.31;5063744;28;20032;-75
2022/01/02 01:01:57;;;;;;;0.40;0.40;;;;;;;6.36;100.00;99860.00;5064099;28;20046;-74
2022/01/02 01:04:29;;;;;;;0.40;0.40;;;;;;;6.31;100.00;99854.84;5064183;28;20032;-74
2022/01/02 01:07:02;;;;;;;0.50;0.50;;;;;;;6.25;100.00;99851.41;5064215;28;20108;-75
2022/01/02 01:09:29;;;;;;;0.40;0.40;;;;;;;6.22;100.00;99848.81;5062363;28;20292;-74
2022/01/02 01:11:58;;;;;;;0.40;0.40;;;;;;;6.22;100.00;99847.13;5063462;28;20326;-76
2022/01/02 01:14:24;;;;;;;0.30;0.30;;;;;;;6.18;100.00;99850.56;5063746;28;20032;-76
2022/01/02 01:16:50;;;;;;;0.40;0.40;;;;;;;6.18;100.00;99846.25;5062368;28;20067;-75
2022/01/02 01:19:15;;;;;;;0.40;0.40;;;;;;;6.16;100.00;99829.94;5063825;28;20041;-74
2022/01/02 01:21:40;;;;;;;0.40;0.40;;;;;;;6.15;100.00;99829.94;5063568;28;20104;-76
2022/01/02 01:24:06;;;;;;;0.40;0.40;;;;;;;6.13;100.00;99832.50;5063483;28;20100;-76
2022/01/02 01:26:31;;;;;;;0.40;0.40;;;;;;;6.11;100.00;99833.34;5063474;28;20063;-76
2022/01/02 01:28:56;;;;;;;0.40;0.40;;;;;;;6.10;100.00;99824.78;5063303;28;20383;-76
2022/01/02 01:31:22;;;;;;;0.40;0.40;;;;;;;6.11;100.00;99830.78;5063125;28;20021;-76
2022/01/02 01:33:47;;;;;;;0.40;0.40;;;;;;;6.06;100.00;99828.19;5063230;28;20500;-76
2022/01/02 01:36:12;;;;;;;0.47;0.47;;;;;;;6.10;100.00;99832.50;5063466;28;20033;-75
2022/01/02 01:38:38;;;;;;;0.68;0.65;;;;;;;6.07;100.00;99830.78;5061790;28;20124;-75
2022/01/02 01:41:09;;;;;;;0.40;0.40;;;;;;;6.08;100.00;99831.66;5063369;28;20021;-74
2022/01/02 01:43:40;;;;;;;0.40;0.40;;;;;;;6.07;100.00;99838.50;5062993;28;20082;-75
2022/01/02 01:46:06;;;;;;;0.40;0.40;;;;;;;6.06;100.00;99843.66;5063380;28;20398;-76
2022/01/02 01:48:32;;;;;;;0.40;0.40;;;;;;;6.00;100.00;99828.16;5061762;28;20021;-76
2022/01/02 01:50:57;;;;;;;0.40;0.40;;;;;;;5.99;100.00;99832.44;5062933;28;20028;-76
2022/01/02 01:53:23;;;;;;;0.40;0.40;;;;;;;5.99;100.00;99821.31;5063069;28;20096;-76
2022/01/02 01:55:49;;;;;;;0.40;0.40;;;;;;;5.98;100.00;99824.72;5061739;28;20021;-75
2022/01/02 01:58:15;;;;;;;0.38;0.38;;;;;;;5.98;100.00;99817.84;5062901;28;20104;-76
2022/01/02 02:00:40;;;;;;;0.40;0.40;;;;;;;5.98;100.00;99814.41;5062873;28;20163;-75
2022/01/02 02:03:06;;;;;;;0.40;0.40;;;;;;;5.99;100.00;99813.56;5061707;28;20020;-75
2022/01/02 02:05:31;;;;;;;0.40;0.40;;;;;;;5.96;100.00;99814.41;5063077;28;20032;-76
2022/01/02 02:07:57;;;;;;;0.40;0.40;;;;;;;5.93;100.00;99810.13;5063070;28;20049;-75
2022/01/02 02:10:27;;;;;;;0.40;0.40;;;;;;;5.95;100.00;99818.72;5062739;28;20029;-75
2022/01/02 02:12:55;;;;;;;0.47;0.47;;;;;;;5.97;100.00;99826.44;5062899;28;20065;-75
2022/01/02 02:15:22;;;;;;;0.30;0.30;;;;;;;5.96;100.00;99819.56;5062716;28;20493;-74
2022/01/02 02:17:50;;;;;;;0.40;0.40;;;;;;;5.93;100.00;99812.69;5062886;28;20509;-75
2022/01/02 02:20:16;;;;;;;0.40;0.40;;;;;;;5.92;100.00;99817.84;5062744;28;20025;-75
2022/01/02 02:22:45;;;;;;;0.40;0.40;;;;;;;5.85;100.00;99793.78;5062849;28;20096;-75
2022/01/02 02:25:12;;;;;;;0.40;0.40;;;;;;;5.86;100.00;99794.66;5062708;28;20080;-77
2022/01/02 02:27:38;;;;;;;0.40;0.40;;;;;;;5.87;100.00;99799.81;5062859;28;20024;-77
2022/01/02 02:30:04;;;;;;;0.40;0.40;;;;;;;5.88;100.00;99791.22;5062379;28;20031;-78
2022/01/02 02:32:30;;;;;;;0.40;0.40;;;;;;;5.89;100.00;99782.66;5062601;28;20041;-78
2022/01/02 02:34:55;;;;;;;0.40;0.40;;;;;;;5.96;100.00;99773.19;5062550;28;20025;-77
2022/01/02 02:37:21;;;;;;;0.30;0.30;;;;;;;6.02;100.00;99772.34;5062667;28;20025;-77
2022/01/02 02:39:46;;;;;;;0.30;0.30;;;;;;;6.02;100.00;99767.19;5062780;28;20029;-78
2022/01/02 02:42:25;;;;;;;0.40;0.40;;;;;;;6.09;100.00;99778.41;5062647;28;20089;-77
2022/01/02 02:44:58;;;;;;;0.40;0.40;;;;;;;6.09;100.00;99768.91;5062733;28;20089;-77
2022/01/02 02:50:07;;;;;;;0.40;0.40;;;;;;;6.17;100.00;99764.63;5062651;28;20112;-77
2022/01/02 02:52:42;;;;;;;0.30;0.30;;;;;;;6.18;100.00;99753.44;5062901;28;20044;-77
2022/01/02 02:55:08;;;;;;;0.40;0.40;;;;;;;6.21;100.00;99747.44;5062873;28;20044;-77
2022/01/02 02:57:35;;;;;;;0.40;0.40;;;;;;;6.25;100.00;99735.41;5065488;28;20021;-77
2022/01/02 03:00:00;;;;;;;0.40;0.40;;;;;;;6.29;100.00;99726.81;5065833;28;20089;-76
2022/01/02 03:02:25;;;;;;;0.40;0.40;;;;;;;6.41;100.00;99733.66;5066185;28;20070;-76
2022/01/02 03:04:51;;;;;;;0.40;0.40;;;;;;;6.49;100.00;99742.25;5065949;28;20035;-76
2022/01/02 03:07:16;;;;;;;0.40;0.40;;;;;;;6.56;100.00;99743.97;5066330;28;20051;-75
2022/01/02 03:09:47;;;;;;;0.40;0.40;;;;;;;6.57;100.00;99734.47;5066158;28;20017;-74
2022/01/02 03:12:13;;;;;;;0.40;0.40;;;;;;;6.55;100.00;99736.22;5066539;28;20045;-74
2022/01/02 03:14:39;;;;;;;0.40;0.40;;;;;;;6.53;100.00;99731.03;5066097;28;20071;-75
2022/01/02 03:17:05;;;;;;;0.40;0.40;;;;;;;6.60;100.00;99731.88;5066172;28;20036;-75
2022/01/02 03:19:33;;;;;;;0.40;0.40;;;;;;;6.54;100.00;99721.59;5066059;28;20045;-76
2022/01/02 03:21:59;;;;;;;0.40;0.40;;;;;;;6.50;100.00;99710.41;5066418;28;20019;-75
2022/01/02 03:24:25;;;;;;;0.40;0.40;;;;;;;6.55;100.00;99705.28;5065840;28;20024;-76
2022/01/02 03:26:50;;;;;;;0.30;0.30;;;;;;;6.52;100.00;99695.81;5066252;28;20024;-74
2022/01/02 03:29:16;;;;;;;0.40;0.40;;;;;;;6.56;100.00;99704.41;5065842;28;20057;-75
2022/01/02 03:31:41;;;;;;;0.40;0.40;;;;;;;6.57;100.00;99703.53;5065928;28;20017;-75
2022/01/02 03:34:06;;;;;;;0.40;0.40;;;;;;;6.57;100.00;99703.53;5064600;28;20032;-75
2022/01/02 03:36:32;;;;;;;0.40;0.40;;;;;;;6.59;100.00;99700.94;5065888;28;20012;-76
2022/01/02 03:38:57;;;;;;;0.35;0.35;;;;;;;6.61;100.00;99696.66;5066138;28;20021;-75
2022/01/02 03:41:26;;;;;;;0.40;0.40;;;;;;;6.61;100.00;99692.34;5065957;28;20024;-75
2022/01/02 03:43:51;;;;;;;0.40;0.40;;;;;;;6.61;100.00;99691.50;5065808;28;20111;-76
2022/01/02 03:46:16;;;;;;;0.40;0.40;;;;;;;6.57;100.00;99694.09;5066061;28;20040;-75
2022/01/02 03:48:42;;;;;;;0.40;0.40;;;;;;;6.57;100.00;99688.94;5065897;28;20524;-75
2022/01/02 03:51:07;;;;;;;0.40;0.40;;;;;;;6.56;100.00;99691.50;5064263;28;20017;-76
2022/01/02 03:53:33;;;;;;;0.30;0.30;;;;;;;6.53;100.00;99684.63;5064304;28;20021;-75
2022/01/02 03:55:59;;;;;;;0.32;0.32;;;;;;;6.52;100.00;99679.47;5065611;28;20047;-76
2022/01/02 03:58:24;;;;;;;0.40;0.40;;;;;;;6.45;100.00;99671.75;5065580;28;20020;-77
2022/01/02 04:00:50;;;;;;;0.40;0.40;;;;;;;6.46;100.00;99672.63;5065355;28;20036;-76
2022/01/02 04:03:18;;;;;;;0.40;0.40;;;;;;;6.43;100.00;99670.06;5063966;28;20084;-76
2022/01/02 04:05:44;;;;;;;0.40;0.40;;;;;;;6.39;100.00;99661.47;5065372;28;20024;-76
2022/01/02 04:08:09;;;;;;;0.35;0.35;;;;;;;6.35;100.00;99652.03;5065496;28;20095;-76
2022/01/02 04:10:35;;;;;;;0.30;0.30;;;;;;;6.36;100.00;99651.16;5065097;28;20033;-76
2022/01/02 04:13:00;;;;;;;0.40;0.40;;;;;;;6.37;100.00;99652.91;5065087;28;20044;-75
2022/01/02 04:15:26;;;;;;;0.40;0.40;;;;;;;6.37;100.00;99646.88;5065180;28;20086;-76
2022/01/02 04:17:51;;;;;;;0.40;0.40;;;;;;;6.40;100.00;99646.88;5063835;28;20025;-76
2022/01/02 04:20:16;;;;;;;0.30;0.30;;;;;;;6.40;100.00;99646.88;5064935;28;20357;-75
2022/01/02 04:22:43;;;;;;;0.40;0.40;;;;;;;6.35;100.00;99631.41;5065194;28;20017;-76
2022/01/02 04:25:08;;;;;;;0.38;0.38;;;;;;;6.37;100.00;99626.25;5064866;28;20020;-76
2022/01/02 04:27:34;;;;;;;0.40;0.40;;;;;;;6.39;100.00;99627.94;5064975;28;20031;-76
2022/01/02 04:29:59;;;;;;;0.40;0.40;;;;;;;6.38;100.00;99622.78;5064466;28;20033;-76
2022/01/02 04:32:25;;;;;;;0.40;0.40;;;;;;;6.34;100.00;99614.25;5063197;28;20260;-76
2022/01/02 04:34:51;;;;;;;0.40;0.40;;;;;;;6.31;100.00;99603.94;5064528;28;20029;-76
2022/01/02 04:37:16;;;;;;;0.40;0.40;;;;;;;6.35;100.00;99609.91;5064607;28;20021;-76
2022/01/02 04:39:42;;;;;;;0.40;0.40;;;;;;;6.35;100.00;99597.03;5064140;28;20035;-75
2022/01/02 04:42:08;;;;;;;0.40;0.40;;;;;;;6.34;100.00;99585.88;5063308;28;20047;-75
2022/01/02 04:44:34;;;;;;;0.40;0.40;;;;;;;6.26;100.00;99575.56;5064259;28;20036;-75
2022/01/02 04:47:00;;;;;;;0.30;0.30;;;;;;;6.34;100.00;99587.59;5064438;28;20029;-75
2022/01/02 04:49:25;;;;;;;0.40;0.40;;;;;;;6.35;100.00;99584.13;5064368;28;20151;-76
2022/01/02 04:51:53;;;;;;;0.40;0.40;;;;;;;6.27;100.00;99579.88;5064124;28;20370;-76
2022/01/02 04:54:18;;;;;;;0.40;0.40;;;;;;;6.30;100.00;99581.56;5064351;28;20020;-75
2022/01/02 04:56:44;;;;;;;0.40;0.40;;;;;;;6.27;100.00;99579.88;5064114;28;20029;-76
2022/01/02 04:59:09;;;;;;;0.40;0.40;;;;;;;6.23;100.00;99572.16;5063924;28;20020;-76
2022/01/02 05:01:34;;;;;;;0.40;0.40;;;;;;;6.26;100.00;99572.16;5063968;28;20380;-75
2022/01/02 05:04:00;;;;;;;0.38;0.38;;;;;;;6.30;100.00;99566.97;5063959;28;20032;-76
2022/01/02 05:06:25;;;;;;;0.40;0.40;;;;;;;6.33;100.00;99560.94;5063818;28;20096;-75
2022/01/02 05:08:50;;;;;;;0.40;0.40;;;;;;;6.35;100.00;99554.06;5064258;28;20023;-76
2022/01/02 05:11:16;;;;;;;0.40;0.40;;;;;;;6.38;100.00;99555.75;5063449;28;20516;-75
2022/01/02 05:13:42;;;;;;;0.32;0.32;;;;;;;6.37;100.00;99549.78;5063672;28;20121;-74
2022/01/02 05:16:08;;;;;;;0.30;0.30;;;;;;;6.42;100.00;99555.75;5063847;28;20021;-75
2022/01/02 05:18:33;;;;;;;0.30;0.30;;;;;;;6.47;100.00;99552.28;5063094;28;20480;-75
2022/01/02 05:20:59;;;;;;;0.40;0.40;;;;;;;6.48;100.00;99559.16;5063415;28;20088;-75
2022/01/02 05:23:24;;;;;;;0.40;0.40;;;;;;;6.52;100.00;99553.09;5063860;28;20072;-75
2022/01/02 05:25:49;;;;;;;0.40;0.40;;;;;;;6.52;100.00;99556.56;5063527;28;20021;-75
2022/01/02 05:28:15;;;;;;;0.40;0.40;;;;;;;6.49;100.00;99547.97;5062022;28;20029;-74
2022/01/02 05:30:41;;;;;;;0.40;0.40;;;;;;;6.41;100.00;99537.69;5062950;28;20024;-75
2022/01/02 05:33:07;;;;;;;0.40;0.40;;;;;;;6.45;100.00;99552.31;5063594;28;20024;-75
2022/01/02 05:35:33;;;;;;;0.30;0.30;;;;;;;6.43;100.00;99544.56;5063174;28;20021;-75
2022/01/02 05:37:59;;;;;;;0.40;0.40;;;;;;;6.39;100.00;99518.81;5063652;28;20465;-75
2022/01/02 05:40:30;;;;;;;0.40;0.40;;;;;;;6.46;100.00;99530.81;5063339;28;20088;-74
2022/01/02 05:42:56;;;;;;;0.50;0.50;;;;;;;6.42;100.00;99529.13;5063561;28;20032;-75
2022/01/02 05:45:21;;;;;;;0.40;0.40;;;;;;;6.45;100.00;99522.19;5063101;28;20024;-75
2022/01/02 05:47:46;;;;;;;0.30;0.30;;;;;;;6.39;100.00;99504.19;5062175;28;20035;-75
2022/01/02 05:50:12;;;;;;;0.40;0.40;;;;;;;6.43;100.00;99505.91;5063076;28;20021;-76
2022/01/02 05:52:37;;;;;;;0.40;0.40;;;;;;;6.41;100.00;99501.59;5063119;28;20104;-75
2022/01/02 05:55:03;;;;;;;0.40;0.40;;;;;;;6.45;100.00;99493.84;5062972;28;20025;-75
2022/01/02 05:57:28;;;;;;;0.40;0.40;;;;;;;6.47;100.00;99506.72;5063485;28;20040;-75
2022/01/02 05:59:54;;;;;;;0.40;0.40;;;;;;;6.45;100.00;99491.25;5062911;28;20021;-75
2022/01/02 06:02:19;;;;;;;0.40;0.40;;;;;;;6.45;100.00;99488.69;5063538;28;20512;-75
2022/01/02 06:04:44;;;;;;;0.40;0.40;;;;;;;6.48;100.00;99489.53;5063129;28;20029;-75
2022/01/02 06:07:09;;;;;;;0.35;0.35;;;;;;;6.50;100.00;99487.81;5063241;28;20033;-75
2022/01/02 06:09:35;;;;;;;0.40;0.40;;;;;;;6.45;100.00;99475.78;5063159;28;20024;-76
2022/01/02 06:12:00;;;;;;;0.30;0.30;;;;;;;6.49;100.00;99486.09;5062955;28;20420;-76
2022/01/02 06:14:26;;;;;;;0.40;0.40;;;;;;;6.49;100.00;99480.94;5062968;28;20028;-76
2022/01/02 06:16:51;;;;;;;0.40;0.40;;;;;;;6.48;100.00;99484.38;5063110;28;20060;-77
2022/01/02 06:19:16;;;;;;;0.40;0.40;;;;;;;6.43;100.00;99477.53;5062949;28;20097;-77
2022/01/02 06:21:42;;;;;;;0.40;0.40;;;;;;;6.44;100.00;99481.81;5062746;28;20020;-71
2022/01/02 06:24:07;;;;;;;0.40;0.40;;;;;;;6.42;100.00;99480.13;5062881;28;20059;-74
2022/01/02 06:26:32;;;;;;;0.40;0.40;;;;;;;6.38;100.00;99471.56;5062744;28;20025;-75
2022/01/02 06:29:02;;;;;;;0.40;0.40;;;;;;;6.43;100.00;99474.97;5062738;28;20040;-72
2022/01/02 06:31:30;;;;;;;0.40;0.40;;;;;;;6.42;100.00;99472.41;5063979;28;20021;-68
2022/01/02 06:33:56;;;;;;;0.40;0.40;;;;;;;6.40;100.00;99468.97;5066875;28;20079;-74
2022/01/02 06:36:21;;;;;;;0.40;0.40;;;;;;;6.36;100.00;99459.53;5066841;28;20021;-72
2022/01/02 06:38:47;;;;;;;0.40;0.40;;;;;;;6.35;100.00;99460.38;5066925;28;20096;-73
2022/01/02 06:41:12;;;;;;;0.40;0.40;;;;;;;6.32;100.00;99457.00;5066515;28;20091;-73
2022/01/02 06:43:39;;;;;;;0.40;0.40;;;;;;;6.28;100.00;99439.81;5066772;28;20047;-73
2022/01/02 06:46:05;;;;;;;0.40;0.40;;;;;;;6.32;100.00;99449.25;5066353;28;20029;-73
2022/01/02 06:48:30;;;;;;;0.40;0.40;;;;;;;6.30;100.00;99448.41;5066469;28;20032;-73
2022/01/02 06:50:56;;;;;;;0.30;0.30;;;;;;;6.30;100.00;99447.53;5066192;28;20081;-73
2022/01/02 06:53:21;;;;;;;0.40;0.40;;;;;;;6.26;100.00;99446.69;5066412;28;20033;-73
2022/01/02 06:55:46;;;;;;;0.40;0.40;;;;;;;6.24;100.00;99447.56;5065074;28;20059;-73
2022/01/02 06:58:13;;;;;;;0.40;0.40;;;;;;;6.25;100.00;99447.56;5066412;28;20017;-68
2022/01/02 07:00:39;;;;;;;0.40;0.40;;;;;;;6.23;100.00;99456.19;5065894;28;20075;-71
2022/01/02 07:03:04;;;;;;;0.40;0.40;;;;;;;6.19;100.00;99434.72;5066104;28;20028;-73
2022/01/02 07:05:29;;;;;;;0.40;0.40;;;;;;;6.22;100.00;99446.72;5065936;28;20024;-77
2022/01/02 07:07:55;;;;;;;0.40;0.40;;;;;;;6.20;100.00;99437.28;5066392;28;20028;-73
2022/01/02 07:10:20;;;;;;;0.35;0.35;;;;;;;6.17;100.00;99432.16;5066009;28;20396;-74
2022/01/02 07:12:45;;;;;;;0.40;0.40;;;;;;;6.22;100.00;99420.94;5065617;28;20045;-74
2022/01/02 07:15:11;;;;;;;0.40;0.40;;;;;;;6.22;100.00;99416.66;5065655;28;20029;-75
2022/01/02 07:17:37;;;;;;;0.40;0.40;;;;;;;6.21;100.00;99409.81;5065905;28;20017;-75
2022/01/02 07:20:06;;;;;;;0.40;0.40;;;;;;;6.19;100.00;99399.50;5065649;28;20033;-75
2022/01/02 07:22:32;;;;;;;0.40;0.40;;;;;;;6.16;100.00;99399.53;5065901;28;20032;-74
2022/01/02 07:24:57;;;;;;;0.40;0.40;;;;;;;6.16;100.00;99390.91;5064524;28;20025;-74
2022/01/02 07:27:22;;;;;;;0.40;0.40;;;;;;;6.16;100.00;99384.06;5065830;28;20036;-73
2022/01/02 07:29:48;;;;;;;0.40;0.40;;;;;;;6.23;100.00;99394.31;5064895;28;20032;-73
2022/01/02 07:32:15;;;;;;;0.40;0.40;;;;;;;6.21;100.00;99389.19;5065983;28;20025;-74
2022/01/02 07:34:40;;;;;;;0.40;0.40;;;;;;;6.22;100.00;99388.31;5066060;28;20052;-74
2022/01/02 07:37:06;;;;;;;0.40;0.40;;;;;;;6.28;100.00;99398.56;5065805;28;20472;-74
2022/01/02 07:39:31;;;;;;;0.40;0.40;;;;;;;6.26;100.00;99391.72;5064285;28;20045;-74
2022/01/02 07:41:56;;;;;;;0.40;0.40;;;;;;;6.29;100.00;99396.84;5065088;28;20037;-74
2022/01/02 07:44:21;;;;;;;0.40;0.40;;;;;;;6.25;100.00;99396.00;5065478;28;20025;-73
2022/01/02 07:46:47;;;;;;;0.40;0.40;;;;;;;6.25;100.00;99397.72;5065569;28;20028;-74
2022/01/02 07:49:12;;;;;;;0.40;0.40;;;;;;;6.21;100.00;99378.88;5065497;28;20021;-73
2022/01/02 07:51:38;;;;;;;0.40;0.40;;;;;;;6.25;100.00;99383.13;5065301;28;20103;-73
2022/01/02 07:54:03;;;;;;;0.40;0.40;;;;;;;6.23;100.00;99379.69;5065707;28;20021;-73
2022/01/02 07:56:29;;;;;;;0.40;0.40;;;;;;;6.21;100.00;99384.03;5065450;28;20018;-73
2022/01/02 07:58:55;;;;;;;0.40;0.40;;;;;;;6.19;100.00;99372.88;5065320;28;20035;-73
2022/01/02 08:01:21;;;;;;;0.40;0.40;;;;;;;6.18;100.00;99376.31;5065175;28;20025;-73
2022/01/02 08:03:47;;;;;;;0.30;0.30;;;;;;;6.11;100.00;99362.59;5065245;28;20441;-73
2022/01/02 08:06:12;;;;;;;0.40;0.40;;;;;;;6.10;100.00;99371.22;5065195;28;20093;-73
2022/01/02 08:08:38;;;;;;;0.32;0.32;;;;;;;6.10;100.00;99376.38;5065226;28;20021;-73
2022/01/02 08:11:03;;;;;;;0.40;0.40;;;;;;;6.09;100.00;99369.47;5064774;28;20090;-74
2022/01/02 08:13:28;;;;;;;0.40;0.40;;;;;;;6.06;100.00;99367.78;5064813;28;20041;-73
2022/01/02 08:15:54;;;;;;;0.40;0.40;;;;;;;6.05;100.00;99360.06;5064901;28;20021;-72
2022/01/02 08:18:20;;;;;;;0.40;0.40;;;;;;;6.06;100.00;99366.94;5064834;28;20576;-74
2022/01/02 08:20:46;;;;;;;0.40;0.40;;;;;;;6.06;100.00;99360.06;5065046;28;20049;-74
2022/01/02 08:23:13;;;;;;;0.40;0.40;;;;;;;6.08;100.00;99362.63;5064988;28;20345;-74
2022/01/02 08:25:39;;;;;;;0.40;0.40;;;;;;;6.11;100.00;99360.03;5064719;28;20040;-73
2022/01/02 08:28:04;;;;;;;0.40;0.40;;;;;;;6.10;100.00;99352.31;5063364;28;20036;-73
2022/01/02 08:30:29;;;;;;;0.40;0.40;;;;;;;6.12;100.00;99355.75;5064559;28;20028;-74
2022/01/02 08:32:55;;;;;;;0.40;0.40;;;;;;;6.13;100.00;99344.56;5063190;28;20029;-74
2022/01/02 08:35:20;;;;;;;0.30;0.30;;;;;;;6.13;100.00;99332.53;5064697;28;20040;-73
2022/01/02 08:37:46;;;;;;;0.32;0.32;;;;;;;6.14;100.00;99333.38;5064596;28;20025;-74
2022/01/02 08:40:11;;;;;;;0.40;0.40;;;;;;;6.17;100.00;99323.91;5064498;28;20032;-73
2022/01/02 08:42:36;;;;;;;0.40;0.40;;;;;;;6.16;100.00;99319.63;5064510;28;20116;-74
2022/01/02 08:45:02;;;;;;;0.40;0.40;;;;;;;6.19;100.00;99311.00;5064265;28;20029;-73
2022/01/02 08:47:28;;;;;;;0.40;0.40;;;;;;;6.25;100.00;99315.25;5064499;28;20071;-75
2022/01/02 08:49:53;;;;;;;0.30;0.30;;;;;;;6.28;100.00;99317.78;5064157;28;20084;-74
2022/01/02 08:52:19;;;;;;;0.40;0.40;;;;;;;6.31;100.00;99323.78;5062636;28;20040;-74
2022/01/02 08:54:44;;;;;;;0.40;0.40;;;;;;;6.35;100.00;99326.34;5063578;28;20044;-74
2022/01/02 08:57:10;;;;;;;0.40;0.40;;;;;;;6.35;100.00;99327.19;5064598;28;20099;-74
2022/01/02 08:59:35;;;;;;;0.40;0.40;;;;;;;6.36;100.00;99323.75;5064165;28;20033;-74
2022/01/02 09:02:01;;;;;;;0.40;0.40;;;;;;;6.36;100.00;99322.91;5064163;28;20229;-74
2022/01/02 09:04:26;;;;;;;0.40;0.40;;;;;;;6.38;100.00;99332.34;5064224;28;20104;-73
2022/01/02 09:06:51;;;;;;;0.40;0.40;;;;;;;6.36;100.00;99318.59;5064418;28;20373;-74
2022/01/02 09:09:17;;;;;;;0.40;0.40;;;;;;;6.41;100.00;99327.16;5064135;28;20232;-74
2022/01/02 09:11:43;;;;;;;0.50;0.50;;;;;;;6.39;100.00;99315.16;5063990;28;20396;-74
2022/01/02 09:14:08;;;;;;;0.30;0.30;;;;;;;6.50;100.00;99325.38;5063623;28;20044;-73
2022/01/02 09:16:34;;;;;;;0.40;0.40;;;;;;;6.54;100.00;99329.59;5062721;28;20017;-74
2022/01/02 09:18:59;;;;;;;0.40;0.40;;;;;;;6.58;100.00;99313.25;5064042;28;20040;-75
2022/01/02 09:21:24;;;;;;;0.40;0.40;;;;;;;6.59;100.00;99309.81;5063928;28;20021;-74
2022/01/02 09:23:50;;;;;;;0.40;0.40;;;;;;;6.59;100.00;99314.09;5064169;28;20029;-74
2022/01/02 09:26:15;;;;;;;0.40;0.40;;;;;;;6.56;100.00;99302.09;5063844;28;20036;-74
2022/01/02 09:28:41;;;;;;;0.40;0.40;;;;;;;6.56;100.00;99317.56;5063894;28;20025;-73
2022/01/02 09:31:07;;;;;;;0.30;0.30;;;;;;;6.59;100.00;99325.28;5063536;28;20152;-73
2022/01/02 09:33:32;;;;;;;0.40;0.40;;;;;;;6.60;100.00;99308.91;5063877;28;20021;-74
2022/01/02 09:35:58;;;;;;;0.40;0.40;;;;;;;6.62;100.00;99302.03;5063723;28;20080;-74
2022/01/02 09:38:23;;;;;;;0.40;0.40;;;;;;;6.64;100.00;99294.28;5062366;28;20029;-73
2022/01/02 09:40:49;;;;;;;0.40;0.40;;;;;;;6.68;100.00;99293.38;5063570;28;20087;-73
2022/01/02 09:43:16;;;;;;;0.30;0.30;;;;;;;6.71;100.00;99300.22;5063617;28;20468;-73
2022/01/02 09:45:45;;;;;;;0.40;0.40;;;;;;;6.67;100.00;99295.09;5063466;28;20028;-74
2022/01/02 09:48:10;;;;;;;0.40;0.40;;;;;;;6.75;100.00;99302.75;5062428;28;20083;-74
2022/01/02 09:50:38;;;;;;;0.38;0.38;;;;;;;6.74;100.00;99303.63;5063575;28;20033;-73
2022/01/02 09:53:03;;;;;;;0.40;0.40;;;;;;;6.74;100.00;99297.63;5063362;28;20025;-74
2022/01/02 09:55:29;;;;;;;0.40;0.40;;;;;;;6.74;100.00;99295.03;5063478;28;20067;-74
2022/01/02 09:57:59;;;;;;;0.40;0.40;;;;;;;6.73;100.00;99288.16;5063618;28;20024;-74
2022/01/02 10:00:24;;;;;;;0.38;0.38;;;;;;;6.77;100.00;99289.84;5063293;28;20024;-72
2022/01/02 10:03:02;;;;;;;0.40;0.40;;;;;;;6.79;100.00;99286.38;5063604;28;20028;-73
2022/01/02 10:05:30;;;;;;;0.40;0.40;;;;;;;6.85;100.00;99285.47;5063375;28;20480;-73
2022/01/02 10:07:56;;;;;;;0.40;0.40;;;;;;;6.88;100.00;99282.84;5063382;28;20036;-74
2022/01/02 10:10:32;;;;;;;0.40;0.40;;;;;;;6.88;100.00;99275.09;5063318;28;20084;-73
2022/01/02 10:13:03;;;;;;;0.40;0.40;;;;;;;6.87;100.00;99273.38;5063175;28;20041;-74
2022/01/02 10:15:31;;;;;;;0.40;0.40;;;;;;;6.82;100.00;99270.84;5063166;28;20021;-74
2022/01/02 10:17:59;;;;;;;0.30;0.30;;;;;;;6.82;100.00;99288.09;5063446;28;20039;-73
2022/01/02 10:20:28;;;;;;;0.40;0.40;;;;;;;6.77;100.00;99274.38;5063208;28;20032;-73
2022/01/02 10:23:14;;;;;;;0.40;0.40;;;;;;;6.78;100.00;99270.91;5063195;28;20096;-74
2022/01/02 10:25:48;;;;;;;0.40;0.40;;;;;;;6.80;100.00;99264.88;5063204;28;20025;-74
2022/01/02 10:28:20;;;;;;;0.35;0.35;;;;;;;6.78;100.00;99276.06;5061797;28;20029;-74
2022/01/02 10:30:48;;;;;;;0.40;0.40;;;;;;;6.76;100.00;99267.47;5062923;28;20031;-74
2022/01/02 10:33:16;;;;;;;0.40;0.40;;;;;;;6.75;100.00;99265.78;5063135;28;20025;-74
2022/01/02 10:35:41;;;;;;;0.40;0.40;;;;;;;6.74;100.00;99264.09;5063645;28;20032;-74
2022/01/02 10:38:14;;;;;;;0.55;0.55;;;;;;;6.66;100.00;99265.00;5062989;28;20016;-73
2022/01/02 10:40:40;;;;;;;0.40;0.40;;;;;;;6.60;100.00;99253.94;5063105;28;20025;-74
2022/01/02 10:43:10;;;;;;;0.40;0.40;;;;;;;6.61;100.00;99251.34;5063136;28;20040;-75
2022/01/02 10:45:43;;;;;;;0.40;0.40;;;;;;;6.56;100.00;99246.22;5062966;28;20145;-75
2022/01/02 10:48:11;;;;;;;0.40;0.40;;;;;;;6.55;100.00;99235.94;5063150;28;20017;-75
2022/01/02 10:50:38;;;;;;;0.38;0.38;;;;;;;6.53;100.00;99232.50;5062489;28;20033;-72
2022/01/02 10:53:17;;;;;;;0.40;0.40;;;;;;;6.48;100.00;99222.25;5062700;28;20032;-73
2022/01/02 10:55:45;;;;;;;0.40;0.40;;;;;;;6.48;100.00;99219.66;5063026;28;20424;-74
2022/01/02 10:58:11;;;;;;;0.40;0.40;;;;;;;6.46;100.00;99205.91;5062697;28;20021;-73
2022/01/02 11:00:37;;;;;;;0.40;0.40;;;;;;;6.49;100.00;99202.44;5062535;28;20036;-74
2022/01/02 11:03:05;;;;;;;0.40;0.40;;;;;;;6.51;100.00;99205.88;5062574;28;20029;-73
2022/01/02 11:05:31;;;;;;;0.30;0.30;;;;;;;6.50;100.00;99194.69;5062510;28;20056;-74
2022/01/02 11:07:59;;;;;;;0.40;0.40;;;;;;;6.57;100.00;99195.47;5062555;28;20052;-73
2022/01/02 11:10:26;;;;;;;0.40;0.40;;;;;;;6.59;100.00;99195.47;5062741;28;20032;-72
2022/01/02 11:12:53;;;;;;;0.40;0.40;;;;;;;6.65;100.00;99187.66;5062211;28;20033;-72
2022/01/02 11:15:21;;;;;;;0.40;0.40;;;;;;;6.69;100.00;99177.28;5062262;28;20025;-72
2022/01/02 11:17:47;;;;;;;0.40;0.40;;;;;;;6.72;100.00;99162.66;5064089;28;20474;-73
2022/01/02 11:20:15;;;;;;;0.40;0.40;;;;;;;6.73;100.00;99147.16;5065870;28;20593;-72
2022/01/02 11:22:59;;;;;;;0.40;0.40;;;;;;;6.74;100.00;99151.41;5066296;28;20051;-73
2022/01/02 11:25:50;;;;;;;0.40;0.40;;;;;;;6.71;100.00;99132.56;5066125;28;20148;-73
2022/01/02 11:28:35;;;;;;;0.32;0.32;;;;;;;6.71;100.00;99143.72;5066167;28;20021;-72
2022/01/02 11:31:03;;;;;;;0.40;0.40;;;;;;;6.69;100.00;99140.34;5065635;28;20116;-71
2022/01/02 11:33:31;;;;;;;0.40;0.40;;;;;;;6.65;100.00;99121.47;5065931;28;20021;-72
2022/01/02 11:35:58;;;;;;;0.40;0.40;;;;;;;6.67;100.00;99122.31;5065755;28;20021;-72